Alberti, Argentina
Current Conditions -  °F | °C
As of 9:00 AM on Friday 24 Oct 2014 (Local Time) from SAEZ Reporting Station
Haze Haze  
Wind Chill: 73°   Ceiling: Unl
Heat Index: 73°   Visibility: 3mi
Dew Point: 68°   Wind: 8mph
Humidity: 83%   Direction: 70°ENE
Pressure: 30"   Gusts: NA
Location:  35.03°S, 60.27°W
Report Text: SAEZ 241200Z 07007KT 5000 BR NSC 23/20 Q1016
Loading
Personal Weather Stations






























Interactive Weather Map
Tropical Storm Tracking
New forecast layout! Learn more

10-Day Weather Forecast

Advertisements
Track Severe Weather on mobile